Time;durP1;ratioP1;P1;durP2;ratioP2;P2;SDS_P1;SDS_P2;PMS_P1;PMS_P2;Temp;Humidity;BMP_temperature;BMP_pressure;BME280_temperature;BME280_humidity;BME280_pressure;Samples;Min_cycle;Max_cycle;Signal;HPM_P1;HPM_P2
2022/08/10 00:00:57;;;;;;;1.25;0.82;;;;;;;;;;4963056;28;20054;-60
2022/08/10 00:03:25;;;;;;;4.75;0.60;;;;;;;;;;4967571;28;20054;-60
2022/08/10 00:05:53;;;;;;;0.60;0.60;;;;;;;;;;4981862;28;20050;-58
2022/08/10 00:08:23;;;;;;;1.45;0.80;;;;;;;;;;4971754;28;20098;-61
2022/08/10 00:10:50;;;;;;;5.15;0.90;;;;;;;;;;4965513;28;20050;-61
2022/08/10 00:13:17;;;;;;;1.08;0.70;;;;;;;;;;4971007;28;20061;-63
2022/08/10 00:15:43;;;;;;;0.70;0.70;;;;;;;;;;4971587;28;20054;-60
2022/08/10 00:18:11;;;;;;;3.20;0.80;;;;;;;;;;4965537;28;20263;-59
2022/08/10 00:20:37;;;;;;;1.17;0.85;;;;;;;;;;4963152;28;20058;-59
2022/08/10 00:23:04;;;;;;;1.42;0.82;;;;;;;;;;4958736;28;20230;-62
2022/08/10 00:25:32;;;;;;;0.95;0.70;;;;;;;;;;4972865;28;20070;-60
2022/08/10 00:27:58;;;;;;;0.80;0.70;;;;;;;;;;4964672;28;20057;-63
2022/08/10 00:30:25;;;;;;;2.35;0.93;;;;;;;;;;4986083;28;20113;-61
2022/08/10 00:32:51;;;;;;;0.85;0.80;;;;;;;;;;4966522;28;20047;-61
2022/08/10 00:35:18;;;;;;;3.72;0.63;;;;;;;;;;4987650;28;20043;-60
2022/08/10 00:37:45;;;;;;;1.00;0.80;;;;;;;;;;4981683;28;20074;-63
2022/08/10 00:40:12;;;;;;;1.40;0.73;;;;;;;;;;4972211;28;20054;-63
2022/08/10 00:42:40;;;;;;;2.25;0.80;;;;;;;;;;4967725;28;20097;-62
2022/08/10 00:45:07;;;;;;;;;;;;;;;;;;4972612;28;20150;-59
2022/08/10 00:47:35;;;;;;;0.75;0.70;;;;;;;;;;4972106;28;19934;-58
2022/08/10 00:50:02;;;;;;;1.50;0.70;;;;;;;;;;4964365;28;20050;-58
2022/08/10 00:52:29;;;;;;;1.00;0.70;;;;;;;;;;4971158;28;20082;-60
2022/08/10 00:54:56;;;;;;;1.02;0.50;;;;;;;;;;4949659;28;20058;-58
2022/08/10 00:57:24;;;;;;;0.70;0.70;;;;;;;;;;4952005;28;20058;-63
2022/08/10 00:59:52;;;;;;;1.33;0.80;;;;;;;;;;4961495;28;20108;-63
2022/08/10 01:02:19;;;;;;;1.00;0.90;;;;;;;;;;4969880;28;20075;-61
2022/08/10 01:04:46;;;;;;;0.82;0.65;;;;;;;;;;4965726;28;20196;-61
2022/08/10 01:07:25;;;;;;;1.55;0.73;;;;;;;;;;4969719;28;20125;-61
2022/08/10 01:09:59;;;;;;;0.90;0.68;;;;;;;;;;4965767;28;20156;-61
2022/08/10 01:12:29;;;;;;;1.10;0.80;;;;;;;;;;4971481;28;20059;-62
2022/08/10 01:15:01;;;;;;;1.17;0.73;;;;;;;;;;4959127;28;20070;-62
2022/08/10 01:17:34;;;;;;;1.15;0.80;;;;;;;;;;4971311;28;20066;-58
2022/08/10 01:20:03;;;;;;;0.88;0.70;;;;;;;;;;4965541;28;20046;-60
2022/08/10 01:22:43;;;;;;;1.08;0.80;;;;;;;;;;4971484;28;20130;-62
2022/08/10 01:25:16;;;;;;;1.00;0.80;;;;;;;;;;4957541;28;20046;-61
2022/08/10 01:27:51;;;;;;;0.52;0.50;;;;;;;;;;4971579;28;20054;-59
2022/08/10 01:30:19;;;;;;;1.10;0.70;;;;;;;;;;4959359;28;20049;-63
2022/08/10 01:32:46;;;;;;;;;;;;;;;;;;4971106;28;20133;-61
2022/08/10 01:35:15;;;;;;;3.22;0.90;;;;;;;;;;4980847;28;19925;-60
2022/08/10 01:37:48;;;;;;;1.58;0.80;;;;;;;;;;4970692;28;20062;-62
2022/08/10 01:40:15;;;;;;;2.60;0.80;;;;;;;;;;4964868;28;20120;-57
2022/08/10 01:42:44;;;;;;;1.00;0.70;;;;;;;;;;4975195;28;20058;-59
2022/08/10 01:45:13;;;;;;;0.95;0.80;;;;;;;;;;4981309;28;20086;-60
2022/08/10 01:50:28;;;;;;;0.82;0.70;;;;;;;;;;4964430;28;20069;-62
2022/08/10 01:52:58;;;;;;;1.90;1.00;;;;;;;;;;4970338;28;20061;-59
2022/08/10 01:55:26;;;;;;;0.90;0.80;;;;;;;;;;4964694;28;20069;-60
2022/08/10 01:57:53;;;;;;;1.35;0.75;;;;;;;;;;4971050;28;20055;-62
2022/08/10 02:00:20;;;;;;;2.13;0.90;;;;;;;;;;4970423;28;20050;-58
2022/08/10 02:02:48;;;;;;;1.30;0.80;;;;;;;;;;4964653;28;20077;-59
2022/08/10 02:05:15;;;;;;;1.00;0.77;;;;;;;;;;4988853;28;20153;-61
2022/08/10 02:07:44;;;;;;;1.60;0.73;;;;;;;;;;4969702;28;20057;-61
2022/08/10 02:10:10;;;;;;;;;;;;;;;;;;4976613;28;20078;-59
2022/08/10 02:12:37;;;;;;;1.23;0.90;;;;;;;;;;4974310;28;19933;-62
2022/08/10 02:15:07;;;;;;;1.33;0.70;;;;;;;;;;4974416;28;20107;-58
2022/08/10 02:17:39;;;;;;;0.88;0.80;;;;;;;;;;4976201;28;20054;-58
2022/08/10 02:20:08;;;;;;;1.35;0.75;;;;;;;;;;4990831;28;20062;-59
2022/08/10 02:22:38;;;;;;;1.55;0.75;;;;;;;;;;4983975;28;20053;-58
2022/08/10 02:25:05;;;;;;;1.30;0.80;;;;;;;;;;4990402;28;20042;-60
2022/08/10 02:27:32;;;;;;;2.10;0.80;;;;;;;;;;4983775;28;20058;-59
2022/08/10 02:30:02;;;;;;;2.17;0.80;;;;;;;;;;4989898;28;20054;-58
2022/08/10 02:32:30;;;;;;;0.95;0.63;;;;;;;;;;4983719;28;20113;-59
2022/08/10 02:34:58;;;;;;;0.73;0.70;;;;;;;;;;4989587;28;20070;-61
2022/08/10 02:37:26;;;;;;;1.15;0.80;;;;;;;;;;4982164;28;20056;-59
2022/08/10 02:39:52;;;;;;;;;;;;;;;;;;4974496;28;20050;-61
2022/08/10 02:42:22;;;;;;;1.20;0.80;;;;;;;;;;4966685;28;19930;-58
2022/08/10 02:44:51;;;;;;;1.20;0.90;;;;;;;;;;4968908;28;20062;-62
2022/08/10 02:47:21;;;;;;;1.17;0.70;;;;;;;;;;4970819;28;20054;-58
2022/08/10 02:49:51;;;;;;;1.27;0.80;;;;;;;;;;4973666;28;20082;-59
2022/08/10 02:52:20;;;;;;;2.45;1.00;;;;;;;;;;4973559;28;20061;-62
2022/08/10 02:54:54;;;;;;;1.90;1.10;;;;;;;;;;4967799;28;20053;-58
2022/08/10 02:57:22;;;;;;;1.70;0.90;;;;;;;;;;4973827;28;20058;-60
2022/08/10 02:59:50;;;;;;;2.35;1.00;;;;;;;;;;4967929;28;20057;-63
2022/08/10 03:02:20;;;;;;;1.58;1.05;;;;;;;;;;4970969;28;20050;-59
2022/08/10 03:04:49;;;;;;;1.35;0.77;;;;;;;;;;4953051;28;20054;-62
2022/08/10 03:07:17;;;;;;;1.17;0.80;;;;;;;;;;4969575;28;20142;-58
2022/08/10 03:09:45;;;;;;;6.53;0.90;;;;;;;;;;4962649;28;20113;-57
2022/08/10 03:12:15;;;;;;;0.88;0.68;;;;;;;;;;4971096;28;20117;-59
2022/08/10 03:14:43;;;;;;;1.48;0.93;;;;;;;;;;4995941;28;20058;-59
2022/08/10 03:17:10;;;;;;;1.52;0.90;;;;;;;;;;4970396;28;20054;-60
2022/08/10 03:19:37;;;;;;;1.27;0.95;;;;;;;;;;4966715;28;20054;-63
2022/08/10 03:22:04;;;;;;;1.67;0.88;;;;;;;;;;4969667;28;20039;-58
2022/08/10 03:24:31;;;;;;;1.13;0.80;;;;;;;;;;4973651;28;20054;-60
2022/08/10 03:26:58;;;;;;;1.40;0.90;;;;;;;;;;4964009;28;20051;-57
2022/08/10 03:29:26;;;;;;;1.90;1.00;;;;;;;;;;4970015;28;20147;-61
2022/08/10 03:31:53;;;;;;;2.35;1.05;;;;;;;;;;4961216;28;20070;-60
2022/08/10 03:34:20;;;;;;;2.15;0.90;;;;;;;;;;4971389;28;20165;-60
2022/08/10 03:36:48;;;;;;;2.22;0.95;;;;;;;;;;4961075;28;20057;-60
2022/08/10 03:39:15;;;;;;;1.20;1.02;;;;;;;;;;4972533;28;20066;-56
2022/08/10 03:41:42;;;;;;;1.20;0.80;;;;;;;;;;4970010;28;20050;-56
2022/08/10 03:44:10;;;;;;;1.48;0.90;;;;;;;;;;4961841;28;20137;-58
2022/08/10 03:46:40;;;;;;;1.95;0.93;;;;;;;;;;4968128;28;20050;-63
2022/08/10 03:49:07;;;;;;;1.98;1.10;;;;;;;;;;4959574;28;20058;-60
2022/08/10 03:51:34;;;;;;;1.35;0.90;;;;;;;;;;4970282;28;20058;-62
2022/08/10 03:54:04;;;;;;;1.48;1.00;;;;;;;;;;4962521;28;20134;-58
2022/08/10 03:56:31;;;;;;;1.17;0.90;;;;;;;;;;4987209;28;20050;-61
2022/08/10 03:58:57;;;;;;;1.17;0.73;;;;;;;;;;4964539;28;20059;-62
2022/08/10 04:01:24;;;;;;;1.52;0.82;;;;;;;;;;4971187;28;20054;-61
2022/08/10 04:03:54;;;;;;;2.45;1.25;;;;;;;;;;4971084;28;20057;-61
2022/08/10 04:06:21;;;;;;;1.13;0.93;;;;;;;;;;4981167;28;20060;-60
2022/08/10 04:08:48;;;;;;;2.22;1.00;;;;;;;;;;4990907;28;20057;-62
2022/08/10 04:11:14;;;;;;;1.77;0.98;;;;;;;;;;4981957;28;20415;-61
2022/08/10 04:13:41;;;;;;;1.40;0.80;;;;;;;;;;4991298;28;20049;-60
2022/08/10 04:16:08;;;;;;;1.85;0.90;;;;;;;;;;4981063;28;20065;-63
2022/08/10 04:18:34;;;;;;;0.95;0.80;;;;;;;;;;4972122;28;20061;-62
2022/08/10 04:21:04;;;;;;;1.95;1.02;;;;;;;;;;4969746;28;20113;-63
2022/08/10 04:23:33;;;;;;;1.52;0.88;;;;;;;;;;4951067;28;20055;-64
2022/08/10 04:26:00;;;;;;;2.95;1.17;;;;;;;;;;4952499;28;20122;-61
2022/08/10 04:28:26;;;;;;;0.95;0.80;;;;;;;;;;4963888;28;20142;-64
2022/08/10 04:30:54;;;;;;;1.48;0.73;;;;;;;;;;4988101;28;20062;-62
2022/08/10 04:33:22;;;;;;;1.40;1.10;;;;;;;;;;4966085;28;20057;-57
2022/08/10 04:35:49;;;;;;;1.38;0.82;;;;;;;;;;4972182;28;20305;-61
2022/08/10 04:38:18;;;;;;;3.92;1.33;;;;;;;;;;4966704;28;20054;-62
2022/08/10 04:40:46;;;;;;;1.02;0.88;;;;;;;;;;4988487;28;20050;-63
2022/08/10 04:43:16;;;;;;;1.77;0.85;;;;;;;;;;4983104;28;20058;-60
2022/08/10 04:45:43;;;;;;;1.13;0.90;;;;;;;;;;4972322;28;20050;-60
2022/08/10 04:48:10;;;;;;;5.57;1.30;;;;;;;;;;4966174;28;20060;-62
2022/08/10 04:50:36;;;;;;;1.35;0.90;;;;;;;;;;4971216;28;20118;-62
2022/08/10 04:53:03;;;;;;;2.63;1.08;;;;;;;;;;4982566;28;20077;-59
2022/08/10 04:55:31;;;;;;;3.83;1.30;;;;;;;;;;4972025;28;20050;-55
2022/08/10 04:57:58;;;;;;;1.65;1.10;;;;;;;;;;4965504;28;20054;-63
2022/08/10 05:00:24;;;;;;;3.45;1.25;;;;;;;;;;4966277;28;20055;-61
2022/08/10 05:02:51;;;;;;;2.13;1.35;;;;;;;;;;4957100;28;20058;-64
2022/08/10 05:05:18;;;;;;;3.67;1.50;;;;;;;;;;4962144;28;20055;-62
2022/08/10 05:07:44;;;;;;;2.67;1.10;;;;;;;;;;4960626;28;20059;-64
2022/08/10 05:10:11;;;;;;;4.32;1.88;;;;;;;;;;4952568;28;20050;-61
2022/08/10 05:12:43;;;;;;;3.38;1.50;;;;;;;;;;4953216;28;20059;-63
2022/08/10 05:15:11;;;;;;;1.60;1.15;;;;;;;;;;4961261;28;20054;-61
2022/08/10 05:17:39;;;;;;;1.92;1.10;;;;;;;;;;4956695;28;20061;-62
2022/08/10 05:20:07;;;;;;;3.15;1.35;;;;;;;;;;4962547;28;20058;-63
2022/08/10 05:22:37;;;;;;;5.60;2.40;;;;;;;;;;4960814;28;20061;-59
2022/08/10 05:25:04;;;;;;;4.05;1.48;;;;;;;;;;4954205;28;20055;-62
2022/08/10 05:27:31;;;;;;;1.92;1.17;;;;;;;;;;4967724;28;20054;-61
2022/08/10 05:29:59;;;;;;;9.05;2.55;;;;;;;;;;4956659;28;20050;-58
2022/08/10 05:32:25;;;;;;;5.00;1.73;;;;;;;;;;4967830;28;20051;-59
2022/08/10 05:34:52;;;;;;;2.53;1.10;;;;;;;;;;4952370;28;20050;-59
2022/08/10 05:37:19;;;;;;;4.03;2.03;;;;;;;;;;4960744;28;20039;-62
2022/08/10 05:39:46;;;;;;;3.67;2.05;;;;;;;;;;4952225;28;20114;-60
2022/08/10 05:42:13;;;;;;;5.55;2.53;;;;;;;;;;4973907;28;20074;-64
2022/08/10 05:44:39;;;;;;;2.80;1.40;;;;;;;;;;4949321;28;20070;-63
2022/08/10 05:47:07;;;;;;;5.22;2.25;;;;;;;;;;4954462;28;20057;-56
2022/08/10 05:49:34;;;;;;;3.05;1.50;;;;;;;;;;4948192;28;20050;-56
2022/08/10 05:52:01;;;;;;;6.60;3.08;;;;;;;;;;4955639;28;20053;-57
2022/08/10 05:54:30;;;;;;;2.67;1.50;;;;;;;;;;4955148;28;20125;-54
2022/08/10 05:56:57;;;;;;;2.88;1.35;;;;;;;;;;4949173;28;20107;-61
2022/08/10 05:59:24;;;;;;;2.28;1.30;;;;;;;;;;4954848;28;20054;-57
2022/08/10 06:01:51;;;;;;;2.35;1.40;;;;;;;;;;4965578;28;20122;-60
2022/08/10 06:04:23;;;;;;;6.25;2.83;;;;;;;;;;4969966;28;20057;-58
2022/08/10 06:06:51;;;;;;;5.32;2.15;;;;;;;;;;4968717;28;20062;-57
2022/08/10 06:09:19;;;;;;;2.60;1.42;;;;;;;;;;4974412;28;20086;-60
2022/08/10 06:11:48;;;;;;;3.10;1.52;;;;;;;;;;4969115;28;20060;-63
2022/08/10 06:17:00;;;;;;;6.82;2.30;;;;;;;;;;4970058;28;20053;-59
2022/08/10 06:19:27;;;;;;;2.50;1.50;;;;;;;;;;4975906;28;20050;-59
2022/08/10 06:21:56;;;;;;;4.82;2.45;;;;;;;;;;4960406;28;20050;-59
2022/08/10 06:24:24;;;;;;;8.38;2.38;;;;;;;;;;4955583;28;20252;-59
2022/08/10 06:26:50;;;;;;;6.07;2.22;;;;;;;;;;4956812;28;20054;-60
2022/08/10 06:29:19;;;;;;;4.15;1.90;;;;;;;;;;4973841;28;20054;-58
2022/08/10 06:31:48;;;;;;;2.13;1.20;;;;;;;;;;4969863;28;20053;-61
2022/08/10 06:34:19;;;;;;;3.05;1.40;;;;;;;;;;4963477;28;20065;-60
2022/08/10 06:36:45;;;;;;;5.38;1.58;;;;;;;;;;4952449;28;20046;-62
2022/08/10 06:39:14;;;;;;;3.47;1.80;;;;;;;;;;4990975;28;20054;-60
2022/08/10 06:41:42;;;;;;;3.22;1.52;;;;;;;;;;4967067;28;20086;-59
2022/08/10 06:44:10;;;;;;;2.17;1.48;;;;;;;;;;4975068;28;20058;-62
2022/08/10 06:46:38;;;;;;;5.68;2.45;;;;;;;;;;4974235;28;20054;-62
2022/08/10 06:49:07;;;;;;;4.65;1.55;;;;;;;;;;4968357;28;20050;-62
2022/08/10 06:51:34;;;;;;;4.20;1.60;;;;;;;;;;4972338;28;20054;-61
2022/08/10 06:54:02;;;;;;;6.88;2.38;;;;;;;;;;4968260;28;20046;-61
2022/08/10 06:56:32;;;;;;;3.22;1.52;;;;;;;;;;4972572;28;20050;-60
2022/08/10 06:59:03;;;;;;;7.93;2.15;;;;;;;;;;4967339;28;20054;-60
2022/08/10 07:01:32;;;;;;;1.95;1.13;;;;;;;;;;4973718;28;20050;-59
2022/08/10 07:04:01;;;;;;;3.38;1.40;;;;;;;;;;4986202;28;20064;-61
2022/08/10 07:06:27;;;;;;;;;;;;;;;;;;4975132;28;20074;-61
2022/08/10 07:08:55;;;;;;;3.97;1.73;;;;;;;;;;4968256;28;20032;-60
2022/08/10 07:11:22;;;;;;;6.13;2.15;;;;;;;;;;4973849;28;20050;-63
2022/08/10 07:13:51;;;;;;;2.28;1.30;;;;;;;;;;4968504;28;20050;-59
2022/08/10 07:16:19;;;;;;;4.72;1.92;;;;;;;;;;4972112;28;20051;-61
2022/08/10 07:18:47;;;;;;;3.15;1.60;;;;;;;;;;4996886;28;20057;-62
2022/08/10 07:21:13;;;;;;;4.00;1.50;;;;;;;;;;5006367;28;20078;-59
2022/08/10 07:23:45;;;;;;;2.10;1.38;;;;;;;;;;4966595;28;20105;-62
2022/08/10 07:26:12;;;;;;;4.43;1.60;;;;;;;;;;4972775;28;20043;-58
2022/08/10 07:28:39;;;;;;;3.83;1.33;;;;;;;;;;4966339;28;20077;-61
2022/08/10 07:31:07;;;;;;;4.00;1.38;;;;;;;;;;4976497;28;20042;-62
2022/08/10 07:33:34;;;;;;;4.53;1.20;;;;;;;;;;4968733;28;20070;-64
2022/08/10 07:36:01;;;;;;;2.05;1.20;;;;;;;;;;4972535;28;20058;-63
2022/08/10 07:38:31;;;;;;;4.40;1.13;;;;;;;;;;4972428;28;20145;-63
2022/08/10 07:40:58;;;;;;;2.05;1.13;;;;;;;;;;4966651;28;20055;-63
2022/08/10 07:43:26;;;;;;;4.07;1.15;;;;;;;;;;4972940;28;20058;-65
2022/08/10 07:45:53;;;;;;;3.83;1.42;;;;;;;;;;4966045;28;20061;-65
2022/08/10 07:48:25;;;;;;;1.85;1.08;;;;;;;;;;4971972;28;20117;-65
2022/08/10 07:50:53;;;;;;;4.45;1.58;;;;;;;;;;4966677;28;20062;-60
2022/08/10 07:53:23;;;;;;;2.90;1.40;;;;;;;;;;4972685;28;20109;-59
2022/08/10 07:55:50;;;;;;;6.50;1.45;;;;;;;;;;4967924;28;20057;-64
2022/08/10 07:58:18;;;;;;;5.35;1.52;;;;;;;;;;4973960;28;20046;-56
2022/08/10 08:00:45;;;;;;;4.55;1.60;;;;;;;;;;4967170;28;20074;-65
2022/08/10 08:03:13;;;;;;;3.33;1.40;;;;;;;;;;4972206;28;20050;-61
2022/08/10 08:05:42;;;;;;;2.80;1.35;;;;;;;;;;4945575;28;20055;-62
2022/08/10 08:08:13;;;;;;;3.28;1.60;;;;;;;;;;4958561;28;20113;-65
2022/08/10 08:10:41;;;;;;;3.13;1.60;;;;;;;;;;4965795;28;20058;-61
2022/08/10 08:13:08;;;;;;;4.22;1.70;;;;;;;;;;4972512;28;20074;-59
2022/08/10 08:15:35;;;;;;;4.78;1.70;;;;;;;;;;4970724;28;20145;-54
2022/08/10 08:18:04;;;;;;;3.03;1.25;;;;;;;;;;4985456;28;20049;-63
2022/08/10 08:20:31;;;;;;;2.85;1.20;;;;;;;;;;4991315;28;20104;-62
2022/08/10 08:22:59;;;;;;;2.72;1.33;;;;;;;;;;4971708;28;20051;-63
2022/08/10 08:25:26;;;;;;;;;;;;;;;;;;4970679;28;20105;-57
2022/08/10 08:27:54;;;;;;;4.90;1.40;;;;;;;;;;4968273;28;19937;-54
2022/08/10 08:30:23;;;;;;;;;;;;;;;;;;4969512;28;20058;-55
2022/08/10 08:32:50;;;;;;;4.00;1.27;;;;;;;;;;4952016;28;19933;-60
2022/08/10 08:35:18;;;;;;;2.75;1.30;;;;;;;;;;4989612;28;20053;-62
2022/08/10 08:37:45;;;;;;;2.95;1.45;;;;;;;;;;4990199;28;20054;-63
2022/08/10 08:40:14;;;;;;;3.30;1.17;;;;;;;;;;4982200;28;20064;-57
2022/08/10 08:42:52;;;;;;;3.88;1.40;;;;;;;;;;4990693;28;20054;-60
2022/08/10 08:45:23;;;;;;;3.13;1.45;;;;;;;;;;4981781;28;20058;-58
2022/08/10 08:48:15;;;;;;;2.80;1.20;;;;;;;;;;4990882;28;20050;-62
2022/08/10 08:50:52;;;;;;;2.42;1.20;;;;;;;;;;4973402;28;20050;-57
2022/08/10 08:53:28;;;;;;;2.28;1.00;;;;;;;;;;4971547;28;20320;-59
2022/08/10 08:56:02;;;;;;;2.38;1.38;;;;;;;;;;4970727;28;20057;-57
2022/08/10 08:58:46;;;;;;;2.70;1.25;;;;;;;;;;4990966;28;20049;-59
2022/08/10 09:01:20;;;;;;;6.40;1.30;;;;;;;;;;4981708;28;20054;-60
2022/08/10 09:03:55;;;;;;;5.68;1.42;;;;;;;;;;4990251;28;20042;-59
2022/08/10 09:06:29;;;;;;;3.13;1.20;;;;;;;;;;4983631;28;20091;-59
2022/08/10 09:09:12;;;;;;;2.15;1.00;;;;;;;;;;4989881;28;20053;-61
2022/08/10 09:11:50;;;;;;;4.18;1.30;;;;;;;;;;4946868;28;20128;-57
2022/08/10 09:14:20;;;;;;;2.92;1.50;;;;;;;;;;4968264;28;20050;-60
2022/08/10 09:16:50;;;;;;;2.60;1.10;;;;;;;;;;4970268;28;20058;-62
2022/08/10 09:19:31;;;;;;;2.67;1.50;;;;;;;;;;4968244;28;20051;-60
2022/08/10 09:22:00;;;;;;;1.75;1.10;;;;;;;;;;4988789;28;20047;-61
2022/08/10 09:24:34;;;;;;;2.25;1.15;;;;;;;;;;4965481;28;20116;-61
2022/08/10 09:27:07;;;;;;;4.18;1.20;;;;;;;;;;4972088;28;20121;-63
2022/08/10 09:29:37;;;;;;;3.15;1.10;;;;;;;;;;4971754;28;20539;-61
2022/08/10 09:32:07;;;;;;;2.72;1.27;;;;;;;;;;4972157;28;20116;-61
2022/08/10 09:34:39;;;;;;;2.90;1.10;;;;;;;;;;4966563;28;20047;-63
2022/08/10 09:37:08;;;;;;;1.17;0.93;;;;;;;;;;4985358;28;20129;-62
2022/08/10 09:39:38;;;;;;;2.05;1.10;;;;;;;;;;4975199;28;20244;-60
2022/08/10 09:42:10;;;;;;;2.28;1.17;;;;;;;;;;4971165;28;20058;-57
2022/08/10 09:44:40;;;;;;;2.25;1.20;;;;;;;;;;4965457;28;20057;-60
2022/08/10 09:47:18;;;;;;;7.00;2.00;;;;;;;;;;4973782;28;20050;-62
2022/08/10 09:49:50;;;;;;;2.45;1.10;;;;;;;;;;4965061;28;20062;-60
2022/08/10 09:52:20;;;;;;;2.58;1.17;;;;;;;;;;4988942;28;20057;-62
2022/08/10 09:54:54;;;;;;;2.80;1.20;;;;;;;;;;4964174;28;20042;-63
2022/08/10 09:57:28;;;;;;;4.40;1.23;;;;;;;;;;4988031;28;20054;-63
2022/08/10 09:59:56;;;;;;;2.72;1.05;;;;;;;;;;4960453;28;20104;-63
2022/08/10 10:02:26;;;;;;;3.63;1.02;;;;;;;;;;4952327;28;20086;-63
2022/08/10 10:05:02;;;;;;;4.70;1.15;;;;;;;;;;4946941;28;20079;-63
2022/08/10 10:07:29;;;;;;;3.88;1.13;;;;;;;;;;4952559;28;20078;-62
2022/08/10 10:09:58;;;;;;;2.47;1.10;;;;;;;;;;4946613;28;20058;-63
2022/08/10 10:12:30;;;;;;;3.10;1.20;;;;;;;;;;4969260;28;20043;-57
2022/08/10 10:17:49;;;;;;;2.70;1.05;;;;;;;;;;4931221;28;20051;-59
2022/08/10 10:20:20;;;;;;;4.80;1.10;;;;;;;;;;4927724;28;20066;-56
2022/08/10 10:22:54;;;;;;;2.65;1.27;;;;;;;;;;4950575;28;20051;-60
2022/08/10 10:25:23;;;;;;;3.83;1.20;;;;;;;;;;4946630;28;20051;-57
2022/08/10 10:27:58;;;;;;;1.02;0.80;;;;;;;;;;4935370;29;20055;-59
2022/08/10 10:30:26;;;;;;;3.70;1.10;;;;;;;;;;4953982;28;20053;-59
2022/08/10 10:32:57;;;;;;;1.55;0.90;;;;;;;;;;4949873;28;20139;-57
2022/08/10 10:35:26;;;;;;;3.58;0.90;;;;;;;;;;4954853;28;20051;-58
2022/08/10 10:37:54;;;;;;;2.08;1.10;;;;;;;;;;4948240;28;20046;-60
2022/08/10 10:40:22;;;;;;;2.28;1.13;;;;;;;;;;4954744;28;20122;-61
2022/08/10 10:42:49;;;;;;;;;;;;;;;;;;4949756;28;20083;-61
2022/08/10 10:45:19;;;;;;;1.67;1.00;;;;;;;;;;4954156;28;19936;-62
2022/08/10 10:47:55;;;;;;;1.98;1.30;;;;;;;;;;4948757;28;20065;-62
2022/08/10 10:50:27;;;;;;;2.13;0.98;;;;;;;;;;4953822;28;20150;-62
2022/08/10 10:53:02;;;;;;;1.48;0.90;;;;;;;;;;4947295;28;20059;-62
2022/08/10 10:55:34;;;;;;;3.42;1.00;;;;;;;;;;4953913;28;20410;-59
2022/08/10 10:58:04;;;;;;;3.17;1.10;;;;;;;;;;4949175;28;20051;-57
2022/08/10 11:00:39;;;;;;;6.75;1.40;;;;;;;;;;4954749;28;20065;-60
2022/08/10 11:03:15;;;;;;;3.13;1.10;;;;;;;;;;4954623;28;20058;-60
2022/08/10 11:05:46;;;;;;;5.30;1.15;;;;;;;;;;4973191;28;20137;-62
2022/08/10 11:08:17;;;;;;;1.80;1.10;;;;;;;;;;4966926;28;20058;-64
2022/08/10 11:10:45;;;;;;;2.80;1.10;;;;;;;;;;4978599;28;20123;-64
2022/08/10 11:13:20;;;;;;;2.83;0.98;;;;;;;;;;4963594;28;20053;-65
2022/08/10 11:15:50;;;;;;;1.65;1.08;;;;;;;;;;4973921;28;20046;-62
2022/08/10 11:18:18;;;;;;;1.27;1.00;;;;;;;;;;4959934;28;20058;-64
2022/08/10 11:20:48;;;;;;;4.60;1.00;;;;;;;;;;4953871;28;20059;-63
2022/08/10 11:23:20;;;;;;;1.30;0.80;;;;;;;;;;4952557;28;20050;-60
2022/08/10 11:25:53;;;;;;;2.58;1.00;;;;;;;;;;4973413;28;20058;-64
2022/08/10 11:28:22;;;;;;;1.13;0.82;;;;;;;;;;4962447;28;20058;-65
2022/08/10 11:30:58;;;;;;;1.92;0.90;;;;;;;;;;4953756;28;20059;-65
2022/08/10 11:33:29;;;;;;;1.27;1.05;;;;;;;;;;4954682;28;20154;-63
2022/08/10 11:36:00;;;;;;;1.00;0.90;;;;;;;;;;4953319;28;20047;-62
2022/08/10 11:38:30;;;;;;;2.20;0.85;;;;;;;;;;4949898;28;20065;-65
2022/08/10 11:41:03;;;;;;;3.60;1.00;;;;;;;;;;4972296;28;20058;-60
2022/08/10 11:43:30;;;;;;;2.47;0.95;;;;;;;;;;4972239;28;20051;-63
2022/08/10 11:46:05;;;;;;;1.05;0.82;;;;;;;;;;4988612;28;20054;-64
2022/08/10 11:48:37;;;;;;;0.98;0.80;;;;;;;;;;4961047;28;20061;-62
2022/08/10 11:51:10;;;;;;;6.03;1.08;;;;;;;;;;4953320;28;20046;-65
2022/08/10 11:53:42;;;;;;;2.25;0.93;;;;;;;;;;4951964;28;20086;-63
2022/08/10 11:56:10;;;;;;;2.22;0.95;;;;;;;;;;4949879;28;20137;-65
2022/08/10 12:01:27;;;;;;;2.42;1.05;;;;;;;;;;4951641;28;20043;-64
2022/08/10 12:03:54;;;;;;;5.25;0.93;;;;;;;;;;4965611;28;20056;-65
2022/08/10 12:06:23;;;;;;;2.95;1.10;;;;;;;;;;4964075;28;20049;-64
2022/08/10 12:08:50;;;;;;;2.97;1.33;;;;;;;;;;4972858;28;20054;-66
2022/08/10 12:11:18;;;;;;;1.80;1.10;;;;;;;;;;4982074;28;20080;-62
2022/08/10 12:13:46;;;;;;;2.55;1.10;;;;;;;;;;4962614;28;20308;-64
2022/08/10 12:16:16;;;;;;;2.05;1.08;;;;;;;;;;4982942;28;20120;-65
2022/08/10 12:18:46;;;;;;;2.42;1.00;;;;;;;;;;4972657;28;20117;-64
2022/08/10 12:21:16;;;;;;;2.30;0.95;;;;;;;;;;4965945;28;20065;-64
2022/08/10 12:23:45;;;;;;;2.22;1.10;;;;;;;;;;4972431;28;20054;-62
2022/08/10 12:26:13;;;;;;;2.47;0.90;;;;;;;;;;4966147;28;20065;-64
2022/08/10 12:28:42;;;;;;;1.30;0.85;;;;;;;;;;4972294;28;20105;-64
2022/08/10 12:31:10;;;;;;;1.83;1.08;;;;;;;;;;4965992;28;20046;-63
2022/08/10 12:33:40;;;;;;;1.48;0.98;;;;;;;;;;4989172;28;20106;-63
2022/08/10 12:36:10;;;;;;;1.17;0.90;;;;;;;;;;4965194;28;20058;-64
2022/08/10 12:38:39;;;;;;;3.13;0.90;;;;;;;;;;4971854;28;20056;-61
2022/08/10 12:41:07;;;;;;;2.35;1.10;;;;;;;;;;4966290;28;20054;-61
2022/08/10 12:43:40;;;;;;;1.80;1.00;;;;;;;;;;4972938;28;20046;-64
2022/08/10 12:46:09;;;;;;;1.77;0.85;;;;;;;;;;4967096;28;20058;-63
2022/08/10 12:48:39;;;;;;;1.45;0.90;;;;;;;;;;4968472;28;20102;-63
2022/08/10 12:51:09;;;;;;;2.20;1.10;;;;;;;;;;4974144;28;20060;-61
2022/08/10 12:53:46;;;;;;;3.17;1.20;;;;;;;;;;4987635;28;20061;-60
2022/08/10 12:56:19;;;;;;;3.40;1.00;;;;;;;;;;4965162;28;20046;-59
2022/08/10 12:58:46;;;;;;;1.85;1.02;;;;;;;;;;4953120;28;20059;-64
2022/08/10 13:01:13;;;;;;;3.03;1.13;;;;;;;;;;4968201;28;20078;-62
2022/08/10 13:03:41;;;;;;;2.42;1.10;;;;;;;;;;4957169;28;20118;-64
2022/08/10 13:06:09;;;;;;;3.60;1.17;;;;;;;;;;4953891;28;20122;-64
2022/08/10 13:11:25;;;;;;;1.40;0.85;;;;;;;;;;4951604;28;20065;-64
2022/08/10 13:13:53;;;;;;;1.48;0.90;;;;;;;;;;4963102;28;20054;-61
2022/08/10 13:16:21;;;;;;;1.67;0.95;;;;;;;;;;4970848;28;20053;-60
2022/08/10 13:18:48;;;;;;;1.50;1.10;;;;;;;;;;4997584;28;20153;-63
2022/08/10 13:21:18;;;;;;;2.00;1.10;;;;;;;;;;5002022;28;20062;-60
2022/08/10 13:23:54;;;;;;;1.73;0.90;;;;;;;;;;4966101;28;20050;-62
2022/08/10 13:26:24;;;;;;;1.48;1.10;;;;;;;;;;4971420;28;20038;-63
2022/08/10 13:28:54;;;;;;;1.88;0.90;;;;;;;;;;4966244;28;20066;-60
2022/08/10 13:31:21;;;;;;;3.03;1.10;;;;;;;;;;4971217;28;20104;-63
2022/08/10 13:33:48;;;;;;;;;;;;;;;;;;4990596;28;20062;-61
2022/08/10 13:36:16;;;;;;;2.08;1.02;;;;;;;;;;4968597;28;19948;-57
2022/08/10 13:38:47;;;;;;;2.10;1.13;;;;;;;;;;4970925;28;20050;-57
2022/08/10 13:41:14;;;;;;;3.17;1.00;;;;;;;;;;4965321;28;20104;-58
2022/08/10 13:43:50;;;;;;;1.40;1.10;;;;;;;;;;4970447;28;20054;-56
2022/08/10 13:46:18;;;;;;;1.65;1.10;;;;;;;;;;4964552;28;20069;-63
2022/08/10 13:48:44;;;;;;;1.30;1.00;;;;;;;;;;4970868;28;20150;-63
2022/08/10 13:51:12;;;;;;;1.75;0.95;;;;;;;;;;4967868;28;20056;-60
2022/08/10 13:53:41;;;;;;;1.98;1.02;;;;;;;;;;4968137;28;20055;-64
2022/08/10 13:56:10;;;;;;;1.70;1.08;;;;;;;;;;4971161;28;20064;-61
2022/08/10 13:58:41;;;;;;;4.70;0.98;;;;;;;;;;4964548;28;20054;-58
2022/08/10 14:01:12;;;;;;;1.10;0.90;;;;;;;;;;4973793;28;20062;-62
2022/08/10 14:03:40;;;;;;;1.65;0.98;;;;;;;;;;4974485;28;20060;-64
2022/08/10 14:06:10;;;;;;;2.67;0.93;;;;;;;;;;4974983;28;20069;-62
2022/08/10 14:08:37;;;;;;;1.20;0.93;;;;;;;;;;4971085;28;20066;-62
2022/08/10 14:11:06;;;;;;;3.97;1.40;;;;;;;;;;4971811;28;20061;-61
2022/08/10 14:13:35;;;;;;;3.90;1.00;;;;;;;;;;4978445;28;20054;-63
2022/08/10 14:16:05;;;;;;;2.30;0.95;;;;;;;;;;4987798;28;20065;-63
2022/08/10 14:18:35;;;;;;;3.22;1.10;;;;;;;;;;4993375;28;20129;-64
2022/08/10 14:21:02;;;;;;;4.70;1.23;;;;;;;;;;4972457;28;20049;-63
2022/08/10 14:23:30;;;;;;;1.33;0.90;;;;;;;;;;4974424;28;20116;-64
2022/08/10 14:25:59;;;;;;;2.78;1.00;;;;;;;;;;4970401;28;20054;-63
2022/08/10 14:28:31;;;;;;;1.77;0.90;;;;;;;;;;4974859;28;20062;-64
2022/08/10 14:31:00;;;;;;;1.67;1.10;;;;;;;;;;4966764;28;20066;-63
2022/08/10 14:33:30;;;;;;;1.90;0.98;;;;;;;;;;4993975;28;20176;-64
2022/08/10 14:35:59;;;;;;;1.35;1.10;;;;;;;;;;4991589;28;20050;-63
2022/08/10 14:38:27;;;;;;;1.98;0.95;;;;;;;;;;4971227;28;20076;-63
2022/08/10 14:40:56;;;;;;;1.50;1.00;;;;;;;;;;4974125;28;20073;-64
2022/08/10 14:43:25;;;;;;;2.15;1.02;;;;;;;;;;4969250;28;20085;-64
2022/08/10 14:45:55;;;;;;;2.10;1.00;;;;;;;;;;4971986;28;20061;-63
2022/08/10 14:48:28;;;;;;;3.75;0.90;;;;;;;;;;4970526;28;20183;-58
2022/08/10 14:50:56;;;;;;;2.78;1.00;;;;;;;;;;4973776;28;20050;-59
2022/08/10 14:53:25;;;;;;;2.50;1.30;;;;;;;;;;4958054;28;20066;-56
2022/08/10 14:55:53;;;;;;;3.15;1.10;;;;;;;;;;4964613;28;20061;-61
2022/08/10 14:58:21;;;;;;;3.88;1.10;;;;;;;;;;4965355;28;20050;-64
2022/08/10 15:00:49;;;;;;;2.35;0.98;;;;;;;;;;4961028;28;20065;-61
2022/08/10 15:03:15;;;;;;;;;;;;;;;;;;4968913;28;20058;-63
2022/08/10 15:05:42;;;;;;;2.40;1.10;;;;;;;;;;4954739;28;19933;-63
2022/08/10 15:08:09;;;;;;;2.57;1.20;;;;;;;;;;4975044;28;20072;-64
2022/08/10 15:10:38;;;;;;;5.35;1.17;;;;;;;;;;4961654;28;20065;-58